Time;durP1;ratioP1;P1;durP2;ratioP2;P2;SDS_P1;SDS_P2;PMS_P1;PMS_P2;Temp;Humidity;BMP_temperature;BMP_pressure;BME280_temperature;BME280_humidity;BME280_pressure;Samples;Min_cycle;Max_cycle;Signal;HPM_P1;HPM_P2
2021/10/13 00:00:53;;;;;;;7.32;5.20;;;;;;;4.34;100.00;101366.63;6089455;23;20060;-84
2021/10/13 00:03:20;;;;;;;10.90;5.50;;;;;;;4.29;100.00;101367.38;6088899;23;20505;-85
2021/10/13 00:05:47;;;;;;;12.73;5.15;;;;;;;4.28;100.00;101375.13;6112963;23;20014;-83
2021/10/13 00:08:14;;;;;;;5.40;4.72;;;;;;;4.26;100.00;101374.19;6113635;23;20417;-83
2021/10/13 00:10:40;;;;;;;8.48;5.57;;;;;;;4.26;100.00;101375.06;6113843;23;20764;-86
2021/10/13 00:13:07;;;;;;;8.23;5.57;;;;;;;4.26;100.00;101380.25;6112249;23;20026;-85
2021/10/13 00:15:36;;;;;;;8.95;5.95;;;;;;;4.25;100.00;101380.19;6112403;23;20073;-83
2021/10/13 00:18:03;;;;;;;7.95;5.88;;;;;;;4.25;100.00;101383.69;6113662;23;20034;-83
2021/10/13 00:20:29;;;;;;;12.55;5.25;;;;;;;4.24;100.00;101381.91;6090083;23;20030;-83
2021/10/13 00:22:56;;;;;;;9.80;5.97;;;;;;;4.24;100.00;101384.50;6114381;23;20022;-83
2021/10/13 00:25:23;;;;;;;6.80;5.07;;;;;;;4.23;100.00;101382.75;6112090;23;20022;-83
2021/10/13 00:27:50;;;;;;;7.63;5.45;;;;;;;4.23;100.00;101377.56;6088192;23;20018;-84
2021/10/13 00:30:17;;;;;;;7.90;5.63;;;;;;;4.21;100.00;101379.25;6113012;23;20851;-82
2021/10/13 00:32:45;;;;;;;5.28;4.50;;;;;;;4.20;100.00;101382.66;6087120;23;20068;-84
2021/10/13 00:35:12;;;;;;;14.18;6.63;;;;;;;4.19;100.00;101387.81;6087567;23;20020;-83
2021/10/13 00:37:38;;;;;;;8.63;5.68;;;;;;;4.19;100.00;101382.63;6088273;23;20029;-82
2021/10/13 00:40:07;;;;;;;11.00;6.55;;;;;;;4.19;100.00;101388.69;6088122;23;20026;-85
2021/10/13 00:42:34;;;;;;;13.50;7.43;;;;;;;4.17;100.00;101386.88;6087259;23;20057;-84
2021/10/13 00:45:00;;;;;;;11.32;6.60;;;;;;;4.17;100.00;101392.91;6086469;23;20030;-84
2021/10/13 00:47:27;;;;;;;16.00;6.07;;;;;;;4.17;100.00;101397.25;6088535;23;20064;-83
2021/10/13 00:49:53;;;;;;;9.57;6.70;;;;;;;4.21;100.00;101399.09;6111957;23;20014;-84
2021/10/13 00:52:20;;;;;;;13.02;6.22;;;;;;;4.24;100.00;101400.06;6089037;23;20033;-86
2021/10/13 00:54:47;;;;;;;11.75;7.15;;;;;;;4.29;100.00;101402.78;6089053;23;20045;-82
2021/10/13 00:57:14;;;;;;;9.80;6.97;;;;;;;4.35;100.00;101404.69;6087429;23;20117;-83
2021/10/13 00:59:40;;;;;;;9.88;6.28;;;;;;;4.38;100.00;101396.97;6111884;23;20566;-85
2021/10/13 01:02:12;;;;;;;8.77;7.30;;;;;;;4.41;100.00;101397.94;6086788;23;20030;-83
2021/10/13 01:04:59;;;;;;;7.82;5.03;;;;;;;4.45;100.00;101399.78;6087134;23;20030;-86
2021/10/13 01:07:57;;;;;;;9.93;6.05;;;;;;;4.50;100.00;101393.84;6087816;23;20036;-84
2021/10/13 01:10:30;;;;;;;9.98;6.32;;;;;;;4.56;100.00;101400.09;6089605;23;20138;-84
2021/10/13 01:13:31;;;;;;;8.50;5.80;;;;;;;4.61;100.00;101398.50;6136200;23;20092;-85
2021/10/13 01:16:17;;;;;;;11.10;5.82;;;;;;;4.67;100.00;101394.31;6088493;23;20048;-85
2021/10/13 01:19:05;;;;;;;10.27;6.93;;;;;;;4.74;100.00;101389.31;6113142;23;20028;-85
2021/10/13 01:22:00;;;;;;;7.18;6.28;;;;;;;4.82;100.00;101393.84;6115558;23;20454;-84
2021/10/13 01:24:58;;;;;;;10.38;6.13;;;;;;;4.86;100.00;101388.78;6114225;23;20026;-82
2021/10/13 01:27:56;;;;;;;9.98;5.80;;;;;;;4.94;100.00;101394.16;6137313;23;20025;-83
2021/10/13 01:30:25;;;;;;;13.20;6.75;;;;;;;4.97;100.00;101394.28;6114268;23;20028;-83
2021/10/13 01:33:03;;;;;;;13.65;7.10;;;;;;;5.01;100.00;101400.41;6088291;23;20026;-86
2021/10/13 01:35:33;;;;;;;20.20;8.55;;;;;;;5.04;100.00;101409.13;6089190;23;20114;-83
2021/10/13 01:38:06;;;;;;;14.50;8.48;;;;;;;5.06;100.00;101410.06;6087213;23;20392;-83
2021/10/13 01:40:35;;;;;;;19.60;7.50;;;;;;;5.09;100.00;101410.13;6089152;23;20034;-84
2021/10/13 01:43:04;;;;;;;14.43;7.47;;;;;;;5.10;100.00;101409.31;6088559;23;20032;-84
2021/10/13 01:45:31;;;;;;;16.23;7.30;;;;;;;5.16;100.00;101405.13;6088878;23;20032;-84
2021/10/13 01:48:00;;;;;;;9.68;6.32;;;;;;;5.18;100.00;101411.22;6091177;23;20021;-85
2021/10/13 01:50:27;;;;;;;31.63;8.85;;;;;;;5.20;100.00;101405.25;6089059;23;20030;-84
2021/10/13 01:52:56;;;;;;;28.17;8.52;;;;;;;5.21;100.00;101404.38;6089159;23;20076;-86
2021/10/13 01:55:26;;;;;;;34.05;8.13;;;;;;;5.20;100.00;101412.13;6111234;23;20030;-84
2021/10/13 01:57:56;;;;;;;25.25;8.40;;;;;;;5.20;100.00;101413.03;6087458;23;20405;-83
2021/10/13 02:00:24;;;;;;;25.55;7.50;;;;;;;5.22;100.00;101411.31;6088450;23;20018;-84
2021/10/13 02:02:53;;;;;;;47.70;11.60;;;;;;;5.24;100.00;101411.38;6090386;23;20109;-83
2021/10/13 02:05:21;;;;;;;40.55;8.63;;;;;;;5.23;100.00;101412.22;6086894;23;20022;-87
2021/10/13 02:07:48;;;;;;;48.20;12.15;;;;;;;5.21;100.00;101417.34;6113413;23;20030;-83
2021/10/13 02:10:17;;;;;;;32.20;8.73;;;;;;;5.21;100.00;101419.09;6114627;23;20025;-84
2021/10/13 02:12:47;;;;;;;26.77;7.80;;;;;;;5.20;100.00;101414.72;6112456;23;20100;-83
2021/10/13 02:15:15;;;;;;;22.58;7.57;;;;;;;5.19;100.00;101411.25;6087963;23;20057;-83
2021/10/13 02:17:51;;;;;;;28.88;7.38;;;;;;;5.18;100.00;101417.28;6142442;23;20026;-85
2021/10/13 02:20:20;;;;;;;10.82;6.53;;;;;;;5.19;100.00;101419.06;6119252;23;20029;-84
2021/10/13 02:22:55;;;;;;;31.60;8.02;;;;;;;5.23;100.00;101431.25;6117607;23;20037;-84
2021/10/13 02:25:22;;;;;;;33.75;7.82;;;;;;;5.27;100.00;101432.22;6115998;23;20033;-83
2021/10/13 02:27:58;;;;;;;13.70;5.97;;;;;;;5.25;100.00;101432.19;6117902;23;20029;-85
2021/10/13 02:30:25;;;;;;;11.95;6.45;;;;;;;5.27;100.00;101433.09;6116153;23;20099;-86
2021/10/13 02:32:52;;;;;;;21.85;8.18;;;;;;;5.28;100.00;101442.66;6118107;23;20687;-83
2021/10/13 02:35:21;;;;;;;14.80;7.03;;;;;;;5.29;100.00;101440.91;6118660;23;20718;-85
2021/10/13 02:37:48;;;;;;;21.13;6.90;;;;;;;5.28;100.00;101449.56;6142650;23;20564;-83
2021/10/13 02:40:14;;;;;;;19.05;7.10;;;;;;;5.28;100.00;101444.38;6121077;23;20026;-84
2021/10/13 02:42:42;;;;;;;17.67;6.80;;;;;;;5.30;100.00;101446.13;6118788;23;20076;-83
2021/10/13 02:45:10;;;;;;;27.42;8.30;;;;;;;5.35;100.00;101445.41;6117261;23;20069;-83
2021/10/13 02:47:41;;;;;;;9.15;6.05;;;;;;;5.33;100.00;101457.47;6117069;23;20029;-83
2021/10/13 02:50:37;;;;;;;15.45;6.72;;;;;;;5.32;100.00;101446.22;6119261;23;20025;-83
2021/10/13 02:53:20;;;;;;;22.95;7.78;;;;;;;5.33;100.00;101453.13;6118290;23;20353;-83
2021/10/13 02:56:00;;;;;;;12.60;6.72;;;;;;;5.34;100.00;101459.22;6168893;23;20757;-83
2021/10/13 02:58:42;;;;;;;20.05;8.43;;;;;;;5.36;100.00;101454.94;6120428;23;20033;-83
2021/10/13 03:01:15;;;;;;;11.88;5.75;;;;;;;5.36;100.00;101465.31;6118525;23;20048;-84
2021/10/13 03:03:49;;;;;;;;;;;;;;;5.38;100.00;101474.03;6118904;23;20092;-83
2021/10/13 03:06:17;;;;;;;19.33;6.20;;;;;;;5.35;100.00;101459.25;6141679;23;19926;-84
2021/10/13 03:08:53;;;;;;;18.63;6.88;;;;;;;5.37;100.00;101465.38;6144735;23;20045;-84
2021/10/13 03:11:23;;;;;;;14.15;8.02;;;;;;;5.41;100.00;101472.41;6118063;23;20033;-86
2021/10/13 03:13:54;;;;;;;39.85;8.25;;;;;;;5.42;100.00;101468.97;6144190;23;20022;-86
2021/10/13 03:16:21;;;;;;;35.58;7.30;;;;;;;5.42;100.00;101470.66;6119554;23;20033;-83
2021/10/13 03:18:49;;;;;;;34.38;8.63;;;;;;;5.41;100.00;101455.91;6142094;23;20076;-84
2021/10/13 03:21:16;;;;;;;31.67;7.82;;;;;;;5.40;100.00;101461.97;6119286;23;20120;-84
2021/10/13 03:23:43;;;;;;;14.20;6.93;;;;;;;5.39;100.00;101463.69;6117118;23;20361;-85
2021/10/13 03:26:13;;;;;;;16.98;6.38;;;;;;;5.41;100.00;101461.13;6118771;23;20860;-82
2021/10/13 03:28:42;;;;;;;10.65;6.30;;;;;;;5.44;100.00;101464.69;6120134;23;20083;-85
2021/10/13 03:31:10;;;;;;;27.00;8.93;;;;;;;5.49;100.00;101459.59;6118955;23;20032;-85
2021/10/13 03:33:37;;;;;;;22.77;7.65;;;;;;;5.53;100.00;101460.53;6142066;23;20393;-84
2021/10/13 03:36:09;;;;;;;13.93;7.32;;;;;;;5.52;100.00;101457.06;6119073;23;20108;-85
2021/10/13 03:38:36;;;;;;;20.15;7.30;;;;;;;5.52;100.00;101464.88;6119531;23;20132;-83
2021/10/13 03:41:03;;;;;;;23.83;7.28;;;;;;;5.55;100.00;101467.53;6120142;23;20026;-84
2021/10/13 03:43:29;;;;;;;17.92;7.85;;;;;;;5.56;100.00;101473.63;6118777;23;20017;-84
2021/10/13 03:45:56;;;;;;;16.25;7.70;;;;;;;5.57;100.00;101475.38;6115792;23;20025;-82
2021/10/13 03:48:23;;;;;;;15.35;7.45;;;;;;;5.59;100.00;101469.38;6119575;23;20027;-86
2021/10/13 03:50:50;;;;;;;16.15;5.93;;;;;;;5.61;100.00;101475.47;6117176;23;20767;-85
2021/10/13 03:53:16;;;;;;;13.15;6.43;;;;;;;5.55;100.00;101472.72;6116800;23;20039;-82
2021/10/13 03:55:43;;;;;;;20.50;6.80;;;;;;;5.53;100.00;101479.63;6119126;23;20025;-84
2021/10/13 03:58:10;;;;;;;32.53;7.78;;;;;;;5.52;100.00;101474.38;6116570;23;20109;-82
2021/10/13 04:00:38;;;;;;;25.15;7.05;;;;;;;5.49;100.00;101479.50;6117259;23;20026;-83
2021/10/13 04:03:05;;;;;;;8.98;5.65;;;;;;;5.47;100.00;101485.56;6117855;23;20029;-83
2021/10/13 04:05:31;;;;;;;10.30;6.90;;;;;;;5.49;100.00;101482.97;6142052;23;20028;-82
2021/10/13 04:08:08;;;;;;;27.20;9.30;;;;;;;5.51;100.00;101488.22;6141037;23;20036;-84
2021/10/13 04:10:35;;;;;;;15.75;8.05;;;;;;;5.50;100.00;101487.34;6142844;23;20437;-82
2021/10/13 04:13:05;;;;;;;15.98;7.80;;;;;;;5.51;100.00;101486.47;6140168;23;20025;-82
2021/10/13 04:15:35;;;;;;;9.27;7.10;;;;;;;5.56;100.00;101489.22;6115378;23;20029;-82
2021/10/13 04:18:02;;;;;;;13.05;7.03;;;;;;;5.59;100.00;101492.75;6118985;23;20076;-84
2021/10/13 04:20:34;;;;;;;23.08;8.93;;;;;;;5.63;100.00;101501.50;6146052;23;20021;-84
2021/10/13 04:23:01;;;;;;;35.85;8.90;;;;;;;5.64;100.00;101495.47;6118484;23;20025;-83
2021/10/13 04:25:28;;;;;;;13.88;7.03;;;;;;;5.65;100.00;101506.75;6143679;23;20599;-83
2021/10/13 04:27:55;;;;;;;19.85;8.60;;;;;;;5.66;100.00;101500.69;6118810;23;20120;-85
2021/10/13 04:30:26;;;;;;;11.80;7.68;;;;;;;5.69;100.00;101493.84;6116748;23;20441;-81
2021/10/13 04:32:54;;;;;;;21.70;8.98;;;;;;;5.74;100.00;101502.66;6120375;23;20036;-85
2021/10/13 04:35:22;;;;;;;25.60;9.63;;;;;;;5.76;100.00;101506.16;6120882;23;20025;-82
2021/10/13 04:37:52;;;;;;;19.55;9.52;;;;;;;5.78;100.00;101501.00;6144300;23;20017;-83
2021/10/13 04:40:19;;;;;;;24.35;8.63;;;;;;;5.77;100.00;101499.25;6122392;23;20521;-82
2021/10/13 04:42:46;;;;;;;12.95;7.72;;;;;;;5.80;100.00;101496.69;6120620;23;20032;-83
2021/10/13 04:45:13;;;;;;;21.27;9.02;;;;;;;5.82;100.00;101497.63;6119240;23;20025;-82
2021/10/13 04:47:40;;;;;;;16.33;9.68;;;;;;;5.83;100.00;101504.59;6118763;23;20447;-83
2021/10/13 04:50:07;;;;;;;23.83;10.13;;;;;;;5.84;100.00;101506.34;6118774;23;20033;-82
2021/10/13 04:52:34;;;;;;;20.02;9.48;;;;;;;5.87;100.00;101510.75;6144256;23;20112;-84
2021/10/13 04:55:00;;;;;;;27.38;9.32;;;;;;;5.86;100.00;101507.25;6116999;23;20120;-82
2021/10/13 04:57:27;;;;;;;26.63;11.48;;;;;;;5.87;100.00;101495.16;6117705;23;20113;-83
2021/10/13 04:59:58;;;;;;;17.90;9.02;;;;;;;5.88;100.00;101496.91;6118561;23;20021;-86
2021/10/13 05:02:24;;;;;;;55.63;12.23;;;;;;;5.90;100.00;101497.81;6132494;23;20021;-86
2021/10/13 05:04:51;;;;;;;16.30;9.65;;;;;;;5.92;100.00;101501.34;6132292;23;20025;-83
2021/10/13 05:07:19;;;;;;;22.02;9.70;;;;;;;5.93;100.00;101500.47;6118455;23;20053;-83
2021/10/13 05:09:46;;;;;;;29.23;9.98;;;;;;;5.93;100.00;101503.06;6120956;23;20074;-83
2021/10/13 05:12:12;;;;;;;14.95;8.70;;;;;;;5.94;100.00;101504.84;6095695;23;20033;-83
2021/10/13 05:14:39;;;;;;;25.85;11.52;;;;;;;5.92;100.00;101503.94;6144411;23;20048;-83
2021/10/13 05:17:06;;;;;;;23.02;12.77;;;;;;;5.92;100.00;101502.22;6125031;23;20052;-85
2021/10/13 05:19:32;;;;;;;20.80;11.52;;;;;;;5.93;100.00;101511.78;6125768;23;20013;-83
2021/10/13 05:21:59;;;;;;;21.48;11.45;;;;;;;5.96;100.00;101508.38;6124321;23;20029;-84
2021/10/13 05:24:26;;;;;;;26.23;12.65;;;;;;;5.99;100.00;101511.06;6121028;23;20030;-83
2021/10/13 05:26:52;;;;;;;36.60;14.70;;;;;;;6.02;100.00;101502.47;6122008;23;20109;-83
2021/10/13 05:29:21;;;;;;;24.20;12.77;;;;;;;6.06;100.00;101512.09;6122609;23;20029;-85
2021/10/13 05:31:47;;;;;;;21.30;12.10;;;;;;;6.09;100.00;101518.25;6122333;23;20030;-84
2021/10/13 05:34:14;;;;;;;23.65;13.35;;;;;;;6.10;100.00;101514.81;6122247;23;20795;-85
2021/10/13 05:36:43;;;;;;;18.80;10.43;;;;;;;6.12;100.00;101518.28;6122834;23;20452;-85
2021/10/13 05:39:10;;;;;;;22.42;12.00;;;;;;;6.12;100.00;101525.22;6147873;23;20029;-84
2021/10/13 05:41:36;;;;;;;26.27;12.98;;;;;;;6.13;100.00;101522.66;6117894;23;20089;-84
2021/10/13 05:44:04;;;;;;;25.65;12.15;;;;;;;6.15;100.00;101522.69;6118205;23;20378;-85
2021/10/13 05:46:30;;;;;;;22.10;11.07;;;;;;;6.16;100.00;101521.00;6141575;23;20033;-83
2021/10/13 05:48:57;;;;;;;20.85;10.70;;;;;;;6.21;100.00;101528.03;6142564;23;20137;-85
2021/10/13 05:51:27;;;;;;;19.20;10.63;;;;;;;6.24;100.00;101527.22;6121685;23;20124;-84
2021/10/13 05:53:53;;;;;;;18.63;9.77;;;;;;;6.31;100.00;101528.25;6118281;23;20239;-85
2021/10/13 05:56:21;;;;;;;19.17;9.63;;;;;;;6.33;100.00;101529.19;6122481;23;20041;-84
2021/10/13 05:58:51;;;;;;;14.00;8.55;;;;;;;6.33;100.00;101524.84;6122079;23;20033;-83
2021/10/13 06:01:21;;;;;;;14.35;9.18;;;;;;;6.28;100.00;101527.34;6122341;23;20049;-83
2021/10/13 06:03:49;;;;;;;16.08;8.45;;;;;;;6.19;100.00;101529.75;6119216;23;20555;-86
2021/10/13 06:06:16;;;;;;;16.88;10.05;;;;;;;6.07;100.00;101530.31;6117454;23;20025;-84
2021/10/13 06:08:44;;;;;;;14.68;9.50;;;;;;;5.95;100.00;101533.47;6119032;23;20025;-85
2021/10/13 06:11:11;;;;;;;15.65;8.57;;;;;;;5.88;100.00;101534.16;6116057;23;20026;-85
2021/10/13 06:13:39;;;;;;;14.73;9.00;;;;;;;5.85;100.00;101535.81;6120084;23;20129;-83
2021/10/13 06:16:07;;;;;;;13.75;8.98;;;;;;;5.82;100.00;101533.16;6129468;23;20065;-85
2021/10/13 06:18:35;;;;;;;13.68;8.68;;;;;;;5.74;100.00;101532.94;6107336;23;20029;-85
2021/10/13 06:21:02;;;;;;;10.27;7.45;;;;;;;5.68;100.00;101538.84;6119067;23;20025;-85
2021/10/13 06:23:28;;;;;;;11.30;7.43;;;;;;;5.64;100.00;101550.00;6143389;23;20032;-85
2021/10/13 06:25:55;;;;;;;12.82;8.02;;;;;;;5.60;100.00;101553.38;6121619;23;20117;-85
2021/10/13 06:28:22;;;;;;;14.48;7.55;;;;;;;5.56;100.00;101565.41;6148043;23;20048;-85
2021/10/13 06:30:52;;;;;;;13.52;7.78;;;;;;;5.58;100.00;101571.53;6122453;23;20030;-85
2021/10/13 06:33:19;;;;;;;28.10;10.38;;;;;;;5.59;100.00;101565.50;6146355;23;20073;-86
2021/10/13 06:35:45;;;;;;;10.57;7.78;;;;;;;5.61;100.00;101566.41;6122431;23;20045;-84
2021/10/13 06:38:12;;;;;;;20.85;11.18;;;;;;;5.62;100.00;101562.09;6148722;23;20022;-84
2021/10/13 06:40:39;;;;;;;12.55;8.55;;;;;;;5.65;100.00;101562.16;6121426;23;20049;-83
2021/10/13 06:43:06;;;;;;;11.70;8.43;;;;;;;5.67;100.00;101567.41;6123976;23;20029;-83
2021/10/13 06:45:35;;;;;;;15.95;9.85;;;;;;;5.70;100.00;101575.28;6150660;23;20029;-85
2021/10/13 06:48:04;;;;;;;14.70;10.13;;;;;;;5.73;100.00;101580.56;6122952;23;20025;-84
2021/10/13 06:50:32;;;;;;;17.95;10.45;;;;;;;5.81;100.00;101584.22;6124852;23;20339;-85
2021/10/13 06:52:59;;;;;;;15.73;8.75;;;;;;;6.06;100.00;101592.66;6124063;23;20057;-86
2021/10/13 06:55:26;;;;;;;9.63;7.32;;;;;;;6.46;100.00;101591.03;6124521;23;20130;-85
2021/10/13 06:57:53;;;;;;;13.40;8.18;;;;;;;6.89;100.00;101586.75;6143993;23;20025;-86
2021/10/13 07:00:20;;;;;;;11.73;7.80;;;;;;;7.31;100.00;101598.03;6119934;23;20037;-86
2021/10/13 07:02:46;;;;;;;9.27;6.25;;;;;;;7.73;100.00;101593.59;6122502;23;20021;-85
2021/10/13 07:05:13;;;;;;;8.20;5.75;;;;;;;8.08;100.00;101599.44;6142984;23;20021;-84
2021/10/13 07:07:48;;;;;;;7.28;5.50;;;;;;;8.30;100.00;101601.50;6147434;23;20484;-85
2021/10/13 07:10:17;;;;;;;6.95;5.95;;;;;;;8.61;100.00;101600.25;6121771;23;20052;-85
2021/10/13 07:12:44;;;;;;;8.40;5.13;;;;;;;8.98;100.00;101594.66;6120760;23;20124;-85
2021/10/13 07:15:12;;;;;;;10.55;4.60;;;;;;;9.37;100.00;101607.34;6122823;23;20031;-85
2021/10/13 07:17:40;;;;;;;6.50;4.60;;;;;;;9.63;100.00;101595.41;6119517;23;20030;-85
2021/10/13 07:20:09;;;;;;;6.93;4.43;;;;;;;9.72;100.00;101595.50;6122170;23;20021;-86
2021/10/13 07:22:36;;;;;;;6.32;4.05;;;;;;;9.69;100.00;101588.50;6096480;23;20029;-85
2021/10/13 07:25:05;;;;;;;7.32;4.25;;;;;;;9.62;98.66;101591.91;6147068;23;20052;-86
2021/10/13 07:27:32;;;;;;;9.07;3.97;;;;;;;9.35;98.12;101590.75;6144744;23;20084;-86
2021/10/13 07:30:00;;;;;;;6.43;5.28;;;;;;;9.04;97.95;101594.75;6145817;23;20080;-86
2021/10/13 07:32:30;;;;;;;8.05;5.18;;;;;;;8.76;99.05;101596.97;6121351;23;20080;-85
2021/10/13 07:34:58;;;;;;;17.90;10.85;;;;;;;8.48;97.87;101601.81;6118859;23;20773;-85
2021/10/13 07:37:25;;;;;;;10.25;5.97;;;;;;;8.24;99.17;101603.16;6121740;23;20075;-86
2021/10/13 07:39:55;;;;;;;9.20;3.95;;;;;;;8.08;99.00;101603.75;6145316;23;20417;-85
2021/10/13 07:42:23;;;;;;;8.88;5.85;;;;;;;7.89;100.00;101602.56;6146242;23;20021;-85
2021/10/13 07:44:53;;;;;;;6.68;4.60;;;;;;;7.81;100.00;101607.66;6143236;23;20021;-84
2021/10/13 07:47:19;;;;;;;7.43;3.90;;;;;;;7.71;100.00;101604.00;6145640;23;20032;-84
2021/10/13 07:49:46;;;;;;;9.77;3.80;;;;;;;7.69;100.00;101610.03;6145813;23;20025;-85
2021/10/13 07:52:12;;;;;;;11.20;4.22;;;;;;;7.61;100.00;101616.00;6142833;23;20048;-86
2021/10/13 07:54:39;;;;;;;8.18;3.95;;;;;;;7.58;100.00;101613.31;6120291;23;20384;-85
2021/10/13 07:57:06;;;;;;;7.18;3.83;;;;;;;7.56;100.00;101612.41;6119041;23;20024;-85
2021/10/13 07:59:33;;;;;;;6.72;3.65;;;;;;;7.56;100.00;101616.72;6122398;23;20055;-85
2021/10/13 08:01:59;;;;;;;7.00;2.95;;;;;;;7.56;100.00;101609.81;6143752;23;20026;-84
2021/10/13 08:04:26;;;;;;;6.75;3.90;;;;;;;7.55;100.00;101604.56;6118146;23;20121;-86
2021/10/13 08:06:54;;;;;;;8.48;4.55;;;;;;;7.59;100.00;101614.19;6119849;23;20048;-84
2021/10/13 08:09:21;;;;;;;6.38;3.85;;;;;;;7.68;100.00;101621.28;6116879;23;20053;-85
2021/10/13 08:11:48;;;;;;;5.97;4.70;;;;;;;7.73;100.00;101615.34;6120434;23;20076;-85
2021/10/13 08:14:22;;;;;;;5.70;3.63;;;;;;;7.83;100.00;101612.88;6143464;23;20340;-84
2021/10/13 08:16:49;;;;;;;6.30;4.45;;;;;;;8.05;100.00;101620.22;6121830;23;20108;-84
2021/10/13 08:19:16;;;;;;;8.07;5.10;;;;;;;8.34;99.86;101625.03;6144787;23;20025;-84
2021/10/13 08:21:42;;;;;;;9.32;4.00;;;;;;;8.58;97.72;101621.97;6142029;23;20096;-82
2021/10/13 08:24:09;;;;;;;10.75;3.00;;;;;;;8.80;96.61;101631.84;6144473;23;20026;-83
2021/10/13 08:26:36;;;;;;;6.22;3.05;;;;;;;8.97;95.25;101630.34;6119312;23;20469;-83
2021/10/13 08:29:03;;;;;;;5.03;2.47;;;;;;;9.18;94.75;101634.09;6119650;23;20030;-83
2021/10/13 08:31:30;;;;;;;5.88;2.00;;;;;;;9.38;92.44;101639.56;6119307;23;20280;-83
2021/10/13 08:33:56;;;;;;;5.57;2.65;;;;;;;9.53;92.33;101639.75;6143679;23;20025;-83
2021/10/13 08:36:23;;;;;;;3.05;2.60;;;;;;;9.69;90.92;101630.31;6120745;23;20044;-86
2021/10/13 08:38:50;;;;;;;7.82;3.15;;;;;;;9.84;90.81;101634.84;6143835;23;20028;-83
2021/10/13 08:41:17;;;;;;;6.25;3.33;;;;;;;9.89;90.79;101635.75;6120370;23;20524;-85
2021/10/13 08:43:53;;;;;;;5.05;2.20;;;;;;;9.88;88.41;101639.25;6147078;23;20439;-85
2021/10/13 08:46:20;;;;;;;6.22;2.70;;;;;;;9.83;89.77;101643.53;6119759;23;20029;-86
2021/10/13 08:48:47;;;;;;;5.15;2.58;;;;;;;9.79;89.26;101647.00;6145696;23;20045;-86
2021/10/13 08:51:14;;;;;;;4.32;2.28;;;;;;;9.71;89.74;101646.91;6118477;23;20044;-83
2021/10/13 08:53:40;;;;;;;4.57;2.75;;;;;;;9.71;89.71;101649.53;6122262;23;20096;-86
2021/10/13 08:56:07;;;;;;;4.20;3.13;;;;;;;9.88;89.06;101648.81;6119910;23;20032;-84
2021/10/13 08:58:43;;;;;;;4.68;2.33;;;;;;;10.04;87.38;101652.47;6120933;23;20010;-85
2021/10/13 09:01:17;;;;;;;5.85;2.97;;;;;;;10.10;85.21;101649.88;6119915;23;20047;-85
2021/10/13 09:03:47;;;;;;;7.15;2.50;;;;;;;10.18;84.27;101653.47;6121118;23;20410;-85
2021/10/13 09:06:26;;;;;;;5.07;2.85;;;;;;;10.25;85.05;101651.78;6120925;23;20029;-86
2021/10/13 09:09:06;;;;;;;4.68;2.70;;;;;;;10.23;84.00;101651.78;6143330;23;20022;-83
2021/10/13 09:11:43;;;;;;;4.43;2.30;;;;;;;10.20;84.74;101651.72;6122818;23;20025;-85
2021/10/13 09:14:29;;;;;;;6.20;2.75;;;;;;;10.20;84.04;101645.63;6122726;23;20032;-84
2021/10/13 09:17:09;;;;;;;5.13;2.72;;;;;;;10.14;84.26;101651.66;6144340;23;20930;-85
2021/10/13 09:19:44;;;;;;;8.70;3.10;;;;;;;10.04;85.10;101650.72;6119644;23;20025;-85
2021/10/13 09:22:15;;;;;;;6.15;3.20;;;;;;;10.10;85.94;101653.41;6122269;23;20031;-85
2021/10/13 09:24:46;;;;;;;7.10;3.60;;;;;;;10.15;85.24;101655.19;6119730;23;20029;-84
2021/10/13 09:27:30;;;;;;;8.25;4.03;;;;;;;10.16;84.69;101651.69;6118894;23;20045;-86
2021/10/13 09:30:07;;;;;;;8.45;4.47;;;;;;;10.18;84.17;101653.47;6121107;23;20029;-85
2021/10/13 09:32:37;;;;;;;8.75;4.10;;;;;;;10.46;83.41;101650.25;6116704;23;20018;-85
2021/10/13 09:35:05;;;;;;;4.70;3.40;;;;;;;10.72;83.49;101648.66;6120680;23;20030;-85
2021/10/13 09:37:48;;;;;;;10.52;4.25;;;;;;;10.79;82.06;101651.31;6119616;23;20063;-85
2021/10/13 09:40:32;;;;;;;8.65;4.80;;;;;;;10.72;81.67;101653.91;6121014;23;20021;-86
2021/10/13 09:43:00;;;;;;;6.50;4.43;;;;;;;10.62;82.32;101654.69;6118748;23;20060;-83
2021/10/13 09:45:33;;;;;;;8.32;4.10;;;;;;;10.48;82.35;101652.00;6119417;23;20021;-83
2021/10/13 09:48:06;;;;;;;9.02;4.43;;;;;;;10.36;82.61;101647.50;6121829;23;20028;-83
2021/10/13 09:50:50;;;;;;;5.68;4.28;;;;;;;10.29;83.26;101653.56;6119327;23;20066;-82
2021/10/13 09:53:31;;;;;;;6.25;3.92;;;;;;;10.31;84.11;101648.31;6147181;23;20055;-83
2021/10/13 09:55:58;;;;;;;8.73;4.20;;;;;;;10.45;83.21;101651.97;6095696;23;20028;-84
2021/10/13 09:58:35;;;;;;;8.68;4.35;;;;;;;10.58;83.20;101648.56;6124303;23;20029;-84
2021/10/13 10:01:23;;;;;;;15.57;5.45;;;;;;;10.65;82.66;101646.00;6144144;23;20032;-86
2021/10/13 10:03:51;;;;;;;4.55;3.60;;;;;;;10.70;81.97;101645.16;6120990;23;20021;-85
2021/10/13 10:06:19;;;;;;;6.50;3.35;;;;;;;10.71;82.15;101646.03;6147245;23;20031;-86
2021/10/13 10:08:54;;;;;;;11.80;3.97;;;;;;;10.70;82.24;101649.50;6144238;23;20488;-85
2021/10/13 10:11:30;;;;;;;6.65;3.65;;;;;;;10.65;82.47;101643.38;6146551;23;20013;-84
2021/10/13 10:14:00;;;;;;;7.55;3.17;;;;;;;10.71;82.07;101652.13;6119019;23;20048;-86
2021/10/13 10:16:32;;;;;;;5.13;3.55;;;;;;;10.75;82.01;101658.28;6144757;23;20025;-85
2021/10/13 10:19:45;;;;;;;8.57;4.03;;;;;;;10.84;81.75;101647.00;6119632;23;20029;-86
2021/10/13 10:22:18;;;;;;;7.95;3.17;;;;;;;10.95;80.64;101647.03;6089756;23;20109;-83
2021/10/13 10:24:47;;;;;;;8.95;3.17;;;;;;;11.03;80.15;101647.94;6090863;23;20022;-83
2021/10/13 10:27:34;;;;;;;3.47;2.97;;;;;;;11.14;79.96;101658.50;6138714;23;20516;-84
2021/10/13 10:30:11;;;;;;;8.48;3.25;;;;;;;11.40;79.45;101653.38;6127365;23;20018;-83
2021/10/13 10:33:05;;;;;;;9.52;4.03;;;;;;;11.71;78.53;101650.84;6149024;23;20025;-84
2021/10/13 10:35:42;;;;;;;7.90;2.42;;;;;;;11.98;77.07;101651.78;6151316;23;20025;-84
2021/10/13 10:38:10;;;;;;;5.70;2.75;;;;;;;12.40;75.45;101650.06;6127465;23;20021;-83
2021/10/13 10:40:41;;;;;;;5.22;2.47;;;;;;;12.88;73.69;101644.72;6121827;23;20029;-84
2021/10/13 10:43:25;;;;;;;5.82;2.30;;;;;;;13.27;70.67;101648.13;6145064;23;20018;-85
2021/10/13 10:45:59;;;;;;;3.67;2.08;;;;;;;13.49;68.97;101641.03;6143199;23;20049;-84
2021/10/13 10:48:45;;;;;;;7.20;2.85;;;;;;;13.64;69.11;101636.56;6145103;23;20026;-84
2021/10/13 10:51:12;;;;;;;3.75;2.53;;;;;;;13.87;67.31;101639.03;6120784;23;20116;-83
2021/10/13 10:53:44;;;;;;;3.13;1.90;;;;;;;13.97;65.51;101635.44;6119137;23;20045;-83
2021/10/13 10:56:18;;;;;;;6.95;2.22;;;;;;;14.11;66.19;101637.13;6123170;23;20341;-82
2021/10/13 10:59:02;;;;;;;4.07;2.50;;;;;;;14.14;64.81;101632.69;6172552;23;20021;-84
2021/10/13 11:01:29;;;;;;;4.93;1.80;;;;;;;14.09;65.71;101636.25;6164599;23;20107;-84
2021/10/13 11:03:56;;;;;;;2.50;2.30;;;;;;;14.13;65.60;101636.22;6128845;23;20273;-83
2021/10/13 11:06:28;;;;;;;2.88;2.28;;;;;;;14.13;66.27;101641.50;6148916;23;20088;-84
2021/10/13 11:09:04;;;;;;;3.55;2.13;;;;;;;14.17;66.49;101635.31;6128053;23;20017;-82
2021/10/13 11:11:39;;;;;;;10.43;1.92;;;;;;;14.18;65.53;101642.34;6153971;23;20021;-83
2021/10/13 11:14:15;;;;;;;4.80;1.55;;;;;;;14.12;64.69;101633.59;6123883;23;20032;-83
2021/10/13 11:16:58;;;;;;;3.35;1.48;;;;;;;14.31;64.79;101645.72;6124143;23;20108;-83
2021/10/13 11:19:36;;;;;;;5.75;1.13;;;;;;;14.54;62.66;101647.28;6145482;23;20019;-82
2021/10/13 11:22:09;;;;;;;3.72;1.10;;;;;;;14.85;63.14;101641.75;6121625;23;20048;-87
2021/10/13 11:24:47;;;;;;;3.38;1.48;;;;;;;15.30;61.27;101642.06;6120628;23;20048;-84
2021/10/13 11:27:14;;;;;;;4.15;1.90;;;;;;;15.25;60.29;101640.38;6122679;23;20025;-87
2021/10/13 11:29:42;;;;;;;7.50;1.60;;;;;;;14.68;61.74;101648.06;6144419;23;20026;-85
2021/10/13 11:32:12;;;;;;;6.10;1.90;;;;;;;14.24;64.04;101654.56;6120031;23;20052;-87
2021/10/13 11:34:40;;;;;;;4.18;1.75;;;;;;;13.82;65.58;101652.22;6120206;23;20117;-86
2021/10/13 11:37:16;;;;;;;6.75;2.40;;;;;;;13.48;67.02;101654.16;6121154;23;20022;-85